Time;durP1;ratioP1;P1;durP2;ratioP2;P2;SDS_P1;SDS_P2;PMS_P1;PMS_P2;Temp;Humidity;BMP_temperature;BMP_pressure;BME280_temperature;BME280_humidity;BME280_pressure;Samples;Min_cycle;Max_cycle;Signal;HPM_P1;HPM_P2
2023/05/15 00:00:39;;;;;;;;;;;;;;;27.22;42.61;93904.25;5047490;28;7163;-64
2023/05/15 00:03:18;;;;;;;;;;;;;;;27.23;42.69;93905.00;5027468;28;9241;-64
2023/05/15 00:06:04;;;;;;;;;;;;;;;27.23;42.48;93902.25;5025996;28;7778;-64
2023/05/15 00:08:55;;;;;;;;;;;;;;;27.20;42.46;93895.75;5023474;28;7262;-65
2023/05/15 00:11:40;;;;;;;;;;;;;;;27.18;42.79;93906.59;5041332;28;7343;-64
2023/05/15 00:14:07;;;;;;;;;;;;;;;27.18;42.74;93900.31;5045849;28;9050;-64
2023/05/15 00:16:45;;;;;;;;;;;;;;;27.13;42.56;93899.16;5022212;28;8565;-64
2023/05/15 00:19:10;;;;;;;;;;;;;;;27.16;42.93;93898.09;5045287;28;7780;-64
2023/05/15 00:21:45;;;;;;;;;;;;;;;27.16;42.62;93898.09;5042370;28;7280;-65
2023/05/15 00:24:14;;;;;;;;;;;;;;;27.17;42.69;93904.34;5031811;28;7449;-64
2023/05/15 00:27:08;;;;;;;;;;;;;;;27.15;42.65;93896.59;5037929;28;7238;-64
2023/05/15 00:29:34;;;;;;;;;;;;;;;27.13;42.47;93895.66;4983913;28;7034;-64
2023/05/15 00:32:08;;;;;;;;;;;;;;;27.15;42.67;93896.59;4982821;28;9201;-65
2023/05/15 00:34:43;;;;;;;;;;;;;;;27.14;42.92;93889.63;4986976;28;9333;-64
2023/05/15 00:37:10;;;;;;;;;;;;;;;27.14;42.65;93895.13;4980288;28;7142;-64
2023/05/15 00:39:36;;;;;;;;;;;;;;;27.12;42.74;93886.63;4973574;28;9019;-64
2023/05/15 00:42:04;;;;;;;;;;;;;;;27.12;42.46;93883.84;4986749;28;8998;-64
2023/05/15 00:44:43;;;;;;;;;;;;;;;27.11;42.72;93885.16;4968563;28;7825;-64
2023/05/15 00:47:11;;;;;;;;;;;;;;;27.11;42.90;93885.16;4974813;28;8972;-64
2023/05/15 00:49:39;;;;;;;;;;;;;;;27.09;42.70;93879.41;4969472;28;7015;-64
2023/05/15 00:52:14;;;;;;;;;;;;;;;27.12;42.72;93881.09;4982880;28;7291;-64
2023/05/15 00:54:40;;;;;;;;;;;;;;;27.11;42.36;93871.34;4976403;28;7631;-64
2023/05/15 00:57:36;;;;;;;;;;;;;;;27.12;42.86;93885.91;4991339;28;9195;-65
2023/05/15 01:00:30;;;;;;;;;;;;;;;27.10;42.55;93878.13;4913778;29;9031;-64
2023/05/15 01:03:25;;;;;;;;;;;;;;;27.09;42.69;93882.19;4892811;29;8962;-64
2023/05/15 01:06:28;;;;;;;;;;;;;;;27.08;42.71;93879.97;4897785;29;7545;-64
2023/05/15 01:09:31;;;;;;;;;;;;;;;27.05;42.92;93876.25;4929390;29;9354;-64
2023/05/15 01:12:28;;;;;;;;;;;;;;;27.05;42.59;93875.50;4915043;29;7023;-64
2023/05/15 01:15:27;;;;;;;;;;;;;;;27.06;42.87;93879.72;4933409;29;7021;-65
2023/05/15 01:18:31;;;;;;;;;;;;;;;27.06;42.75;93880.47;4874410;29;8989;-64
2023/05/15 01:21:33;;;;;;;;;;;;;;;27.04;42.91;93874.75;4895220;29;7187;-64
2023/05/15 01:24:36;;;;;;;;;;;;;;;27.01;42.90;93875.81;4894096;29;9076;-64
2023/05/15 01:27:53;;;;;;;;;;;;;;;27.01;42.97;93875.06;4897016;29;8719;-64
2023/05/15 01:30:27;;;;;;;;;;;;;;;27.00;42.86;93873.59;4842361;29;7125;-65
2023/05/15 01:33:08;;;;;;;;;;;;;;;26.99;43.35;93870.06;4827371;29;7278;-64
2023/05/15 01:35:45;;;;;;;;;;;;;;;26.98;42.81;93870.63;4819596;29;7118;-64
2023/05/15 01:38:26;;;;;;;;;;;;;;;27.01;42.74;93870.31;4855747;29;8421;-64
2023/05/15 01:41:07;;;;;;;;;;;;;;;27.01;42.77;93877.84;4843343;29;7022;-64
2023/05/15 01:43:39;;;;;;;;;;;;;;;27.01;42.81;93873.06;4873220;29;7418;-64
2023/05/15 01:46:07;;;;;;;;;;;;;;;27.00;42.70;93879.09;4884250;29;9735;-64
2023/05/15 01:48:35;;;;;;;;;;;;;;;26.96;43.01;93873.91;4886878;29;9023;-64
2023/05/15 01:51:06;;;;;;;;;;;;;;;26.96;42.44;93879.44;4892401;29;7027;-65
2023/05/15 01:53:35;;;;;;;;;;;;;;;26.95;43.24;93877.94;4907260;28;7360;-64
2023/05/15 01:56:06;;;;;;;;;;;;;;;26.98;43.06;93881.66;4965686;28;9364;-64
2023/05/15 01:58:38;;;;;;;;;;;;;;;26.98;42.78;93874.13;4947361;28;8720;-64
2023/05/15 02:01:05;;;;;;;;;;;;;;;26.96;42.65;93873.91;4950726;28;7239;-64
2023/05/15 02:03:35;;;;;;;;;;;;;;;27.00;42.70;93885.38;4949164;28;7621;-64
2023/05/15 02:06:12;;;;;;;;;;;;;;;26.99;43.02;93883.88;5003754;28;7031;-64
2023/05/15 02:08:56;;;;;;;;;;;;;;;26.98;42.94;93882.41;5047323;28;6979;-64
2023/05/15 02:11:41;;;;;;;;;;;;;;;26.97;42.81;93878.16;5041369;28;8865;-64
2023/05/15 02:14:16;;;;;;;;;;;;;;;26.98;43.27;93870.63;5045380;28;7107;-64
2023/05/15 02:16:51;;;;;;;;;;;;;;;26.97;42.72;93867.09;5047901;28;6859;-64
2023/05/15 02:19:28;;;;;;;;;;;;;;;26.98;43.11;93870.63;5028866;28;8953;-64
2023/05/15 02:22:28;;;;;;;;;;;;;;;26.97;42.71;93866.38;5050434;28;8992;-65
2023/05/15 02:24:54;;;;;;;;;;;;;;;26.97;42.86;93869.16;5046235;28;8803;-65
2023/05/15 02:28:11;;;;;;;;;;;;;;;26.97;42.78;93869.16;5043700;28;7514;-65
2023/05/15 02:31:25;;;;;;;;;;;;;;;26.94;42.79;93870.94;4983237;28;7237;-64
2023/05/15 02:34:28;;;;;;;;;;;;;;;26.95;42.75;93866.91;4975901;28;8260;-64
2023/05/15 02:37:26;;;;;;;;;;;;;;;26.92;42.48;93865.22;4976974;28;8774;-64
2023/05/15 02:39:59;;;;;;;;;;;;;;;26.92;42.99;93867.97;4986409;28;9179;-65
2023/05/15 02:42:27;;;;;;;;;;;;;;;26.92;42.84;93863.19;4992250;28;8740;-65
2023/05/15 02:45:42;;;;;;;;;;;;;;;26.92;42.67;93870.00;4986006;28;8020;-65
2023/05/15 02:48:09;;;;;;;;;;;;;;;26.90;43.00;93870.53;4933339;28;7222;-64
2023/05/15 02:50:38;;;;;;;;;;;;;;;26.90;43.17;93876.03;4924925;28;9053;-65
2023/05/15 02:53:06;;;;;;;;;;;;;;;26.90;43.01;93870.53;4939318;28;8967;-65
2023/05/15 02:55:34;;;;;;;;;;;;;;;26.89;42.64;93871.78;4934792;28;9045;-64
2023/05/15 02:58:02;;;;;;;;;;;;;;;26.88;42.84;93878.59;4927512;28;7269;-64
2023/05/15 03:00:57;;;;;;;;;;;;;;;26.90;42.89;93887.09;4945505;28;7373;-64
2023/05/15 03:03:23;;;;;;;;;;;;;;;26.92;42.54;93886.53;4942500;28;7059;-64
2023/05/15 03:06:01;;;;;;;;;;;;;;;26.86;43.23;93881.88;4941462;28;9070;-64
2023/05/15 03:08:37;;;;;;;;;;;;;;;26.87;42.68;93888.13;4976365;28;7109;-64
2023/05/15 03:11:18;;;;;;;;;;;;;;;26.87;43.33;93886.13;4975166;28;7128;-64
2023/05/15 03:14:11;;;;;;;;;;;;;;;26.88;42.71;93884.13;4996728;28;8824;-64
2023/05/15 03:17:02;;;;;;;;;;;;;;;26.85;42.83;93885.16;4983198;28;7325;-64
2023/05/15 03:19:38;;;;;;;;;;;;;;;26.84;43.09;93872.63;4990005;28;7591;-64
2023/05/15 03:22:13;;;;;;;;;;;;;;;26.83;43.13;93871.16;4965462;28;7288;-64
2023/05/15 03:24:40;;;;;;;;;;;;;;;26.81;42.91;93876.47;4993734;28;7071;-64
2023/05/15 03:27:06;;;;;;;;;;;;;;;26.80;42.44;93870.19;5043487;28;7174;-64
2023/05/15 03:29:45;;;;;;;;;;;;;;;26.77;43.27;93874.00;5043513;28;7863;-64
2023/05/15 03:32:21;;;;;;;;;;;;;;;26.79;42.78;93877.00;5045507;28;7484;-64
2023/05/15 03:35:00;;;;;;;;;;;;;;;26.77;42.95;93876.06;5025612;28;7401;-65
2023/05/15 03:37:57;;;;;;;;;;;;;;;26.79;43.32;93870.75;5041204;28;7539;-64
2023/05/15 03:40:34;;;;;;;;;;;;;;;26.77;43.28;93871.25;4988192;28;8697;-64
2023/05/15 03:43:31;;;;;;;;;;;;;;;26.77;42.38;93873.28;4991338;28;7229;-65
2023/05/15 03:46:37;;;;;;;;;;;;;;;26.76;43.25;93866.28;4917161;29;8739;-65
2023/05/15 03:49:20;;;;;;;;;;;;;;;26.74;43.04;93864.06;4919077;29;9300;-65
2023/05/15 03:51:48;;;;;;;;;;;;;;;26.77;42.93;93867.78;4932082;29;9535;-65
2023/05/15 03:54:24;;;;;;;;;;;;;;;26.76;42.88;93866.28;4931024;29;9033;-65
2023/05/15 03:57:19;;;;;;;;;;;;;;;26.76;42.98;93863.50;4937662;29;7163;-65
2023/05/15 03:59:45;;;;;;;;;;;;;;;26.75;43.10;93864.81;4913790;29;9039;-65
2023/05/15 04:02:38;;;;;;;;;;;;;;;26.76;43.22;93877.31;4915648;29;6992;-64
2023/05/15 04:05:09;;;;;;;;;;;;;;;26.74;43.02;93869.56;4895634;29;9310;-65
2023/05/15 04:08:03;;;;;;;;;;;;;;;26.75;43.10;93878.59;4914961;29;9091;-65
2023/05/15 04:11:08;;;;;;;;;;;;;;;26.73;42.81;93876.34;4901386;29;7136;-65
2023/05/15 04:14:01;;;;;;;;;;;;;;;26.73;42.85;93878.38;4879734;29;9363;-64
2023/05/15 04:16:28;;;;;;;;;;;;;;;26.74;43.34;93875.09;4898476;29;7610;-64
2023/05/15 04:18:56;;;;;;;;;;;;;;;26.71;43.22;93869.84;4897944;29;9028;-64
2023/05/15 04:21:34;;;;;;;;;;;;;;;26.72;42.83;93887.91;4900433;28;8712;-65
2023/05/15 04:24:20;;;;;;;;;;;;;;;26.72;42.91;93880.38;4958089;28;7293;-64
2023/05/15 04:26:46;;;;;;;;;;;;;;;26.71;43.21;93887.16;4968943;28;9033;-64
2023/05/15 04:29:25;;;;;;;;;;;;;;;26.69;42.99;93878.66;4966374;28;9010;-64
2023/05/15 04:32:01;;;;;;;;;;;;;;;26.68;42.94;93888.22;4970243;28;7138;-64
2023/05/15 04:34:36;;;;;;;;;;;;;;;26.71;43.18;93889.16;4970700;28;7228;-65
2023/05/15 04:37:03;;;;;;;;;;;;;;;26.74;42.77;93888.13;4978477;28;7260;-64
2023/05/15 04:39:48;;;;;;;;;;;;;;;26.72;43.62;93887.91;4990737;28;9014;-65
2023/05/15 04:42:39;;;;;;;;;;;;;;;26.71;43.07;93889.91;4991715;28;7261;-64
2023/05/15 04:45:06;;;;;;;;;;;;;;;26.69;43.11;93886.19;4986177;28;7198;-65
2023/05/15 04:47:41;;;;;;;;;;;;;;;26.70;42.74;93887.69;5022730;28;9970;-65
2023/05/15 04:50:12;;;;;;;;;;;;;;;26.67;43.03;93891.50;5030303;28;7144;-65
2023/05/15 04:53:10;;;;;;;;;;;;;;;26.64;43.30;93881.53;5049785;28;9019;-64
2023/05/15 04:55:50;;;;;;;;;;;;;;;26.63;42.98;93885.56;5046003;28;7114;-65
2023/05/15 04:58:18;;;;;;;;;;;;;;;26.62;42.71;93879.28;5038489;28;9345;-65
2023/05/15 05:00:57;;;;;;;;;;;;;;;26.62;43.07;93878.56;5042846;28;7817;-65
2023/05/15 05:04:01;;;;;;;;;;;;;;;26.64;42.87;93889.81;5024731;28;7248;-65
2023/05/15 05:06:29;;;;;;;;;;;;;;;26.62;43.12;93884.09;5035688;28;9237;-65
2023/05/15 05:08:57;;;;;;;;;;;;;;;26.57;43.16;93890.44;5030612;28;7280;-65
2023/05/15 05:11:28;;;;;;;;;;;;;;;26.59;43.56;93885.88;5029283;28;9056;-65
2023/05/15 05:13:57;;;;;;;;;;;;;;;26.60;43.45;93898.38;5044345;28;7324;-64
2023/05/15 05:16:25;;;;;;;;;;;;;;;26.66;43.58;93895.53;5031232;28;7305;-64
2023/05/15 05:19:18;;;;;;;;;;;;;;;26.68;42.76;93893.75;5046288;28;9936;-65
2023/05/15 05:22:10;;;;;;;;;;;;;;;26.72;43.07;93898.94;5045439;28;7034;-64
2023/05/15 05:24:53;;;;;;;;;;;;;;;26.72;42.94;93894.16;5027269;28;7115;-65
2023/05/15 05:27:29;;;;;;;;;;;;;;;26.77;43.34;93890.56;5047187;28;7219;-65
2023/05/15 05:29:56;;;;;;;;;;;;;;;26.81;43.24;93893.03;5040085;28;9209;-64
2023/05/15 05:32:31;;;;;;;;;;;;;;;26.84;43.45;93892.69;5044185;28;8208;-64
2023/05/15 05:35:02;;;;;;;;;;;;;;;26.90;42.63;93909.16;5045856;28;8090;-64
2023/05/15 05:37:35;;;;;;;;;;;;;;;26.96;43.26;93901.50;5050521;28;7461;-64
2023/05/15 05:40:05;;;;;;;;;;;;;;;26.99;42.32;93896.94;5044756;28;7118;-64
2023/05/15 05:43:11;;;;;;;;;;;;;;;27.01;41.99;93892.38;5042632;28;9610;-64
2023/05/15 05:45:39;;;;;;;;;;;;;;;27.04;42.26;93896.84;5033178;28;7054;-64
2023/05/15 05:48:06;;;;;;;;;;;;;;;27.01;42.14;93884.09;5044180;28;7304;-64
2023/05/15 05:50:34;;;;;;;;;;;;;;;27.08;42.14;93886.19;5049381;28;7339;-64
2023/05/15 05:53:02;;;;;;;;;;;;;;;27.10;42.17;93889.19;5048602;28;9346;-64
2023/05/15 05:55:28;;;;;;;;;;;;;;;27.11;41.90;93896.19;5024112;28;7096;-64
2023/05/15 05:57:55;;;;;;;;;;;;;;;27.16;42.11;93891.84;5046761;28;8976;-64
2023/05/15 06:00:21;;;;;;;;;;;;;;;27.20;41.67;93897.78;5049073;28;9201;-64
2023/05/15 06:02:57;;;;;;;;;;;;;;;27.20;42.00;93893.00;5021497;28;9093;-64
2023/05/15 06:05:28;;;;;;;;;;;;;;;27.20;41.98;93904.03;5034105;28;7268;-64
2023/05/15 06:08:09;;;;;;;;;;;;;;;27.23;41.90;93902.97;5043865;28;9046;-65
2023/05/15 06:10:46;;;;;;;;;;;;;;;27.25;41.84;93896.91;5026479;28;9119;-64
2023/05/15 06:13:14;;;;;;;;;;;;;;;27.24;42.12;93898.94;5042597;28;9130;-64
2023/05/15 06:15:40;;;;;;;;;;;;;;;27.25;42.17;93905.94;5029918;28;9158;-64
2023/05/15 06:18:11;;;;;;;;;;;;;;;27.28;42.06;93901.38;5041115;28;8623;-64
2023/05/15 06:20:41;;;;;;;;;;;;;;;27.29;42.07;93911.16;5024299;28;7316;-64
2023/05/15 06:23:08;;;;;;;;;;;;;;;27.32;42.08;93905.28;5022261;28;7047;-65
2023/05/15 06:25:35;;;;;;;;;;;;;;;27.36;41.99;93911.25;5024519;28;9734;-65
2023/05/15 06:28:09;;;;;;;;;;;;;;;27.41;41.86;93912.41;5045129;28;7306;-65
2023/05/15 06:30:55;;;;;;;;;;;;;;;27.48;41.95;93915.28;5025268;28;7761;-65
2023/05/15 06:33:34;;;;;;;;;;;;;;;27.55;42.32;93916.66;5034780;28;8341;-64
2023/05/15 06:36:04;;;;;;;;;;;;;;;27.59;41.92;93917.81;5049955;28;8770;-65
2023/05/15 06:38:38;;;;;;;;;;;;;;;27.64;42.07;93918.97;5043508;28;9198;-65
2023/05/15 06:41:12;;;;;;;;;;;;;;;27.69;41.88;93911.84;5025612;28;7058;-65
2023/05/15 06:43:38;;;;;;;;;;;;;;;27.71;41.59;93912.03;5026139;28;9059;-65
2023/05/15 06:46:04;;;;;;;;;;;;;;;27.75;42.02;93915.97;5033250;28;9053;-65
2023/05/15 06:48:30;;;;;;;;;;;;;;;27.77;41.69;93918.19;5021558;28;7004;-65
2023/05/15 06:51:02;;;;;;;;;;;;;;;27.79;42.54;93915.63;5038535;28;9559;-65
2023/05/15 06:53:29;;;;;;;;;;;;;;;27.82;41.79;93918.03;5024712;28;7348;-65
2023/05/15 06:55:56;;;;;;;;;;;;;;;27.84;41.76;93917.53;5044627;28;7012;-65
2023/05/15 06:58:22;;;;;;;;;;;;;;;27.83;41.50;93910.50;5028328;28;8717;-65
2023/05/15 07:01:02;;;;;;;;;;;;;;;27.85;41.33;93919.75;5032991;28;7342;-64
2023/05/15 07:03:32;;;;;;;;;;;;;;;27.88;41.63;93913.16;5031723;28;7277;-64
2023/05/15 07:06:02;;;;;;;;;;;;;;;27.91;42.04;93919.59;5028581;28;7642;-64
2023/05/15 07:08:35;;;;;;;;;;;;;;;27.90;41.60;93915.38;5024985;28;7258;-64
2023/05/15 07:11:12;;;;;;;;;;;;;;;27.93;41.61;93917.03;5022469;28;9009;-64
2023/05/15 07:14:08;;;;;;;;;;;;;;;27.93;42.00;93919.81;5018522;28;7258;-65
2023/05/15 07:16:36;;;;;;;;;;;;;;;27.93;41.46;93911.50;4969341;28;8934;-64
2023/05/15 07:19:02;;;;;;;;;;;;;;;27.93;41.31;93920.56;4968716;28;8750;-65
2023/05/15 07:21:32;;;;;;;;;;;;;;;27.88;41.58;93912.41;4951583;28;8689;-64
2023/05/15 07:24:00;;;;;;;;;;;;;;;27.92;41.84;93921.09;4945322;28;9388;-64
2023/05/15 07:26:26;;;;;;;;;;;;;;;27.88;41.67;93924.22;4957692;28;8661;-64
2023/05/15 07:28:52;;;;;;;;;;;;;;;27.89;41.68;93922.91;4945890;28;9507;-65
2023/05/15 07:31:23;;;;;;;;;;;;;;;27.89;41.34;93927.69;4951168;28;7057;-64
2023/05/15 07:33:49;;;;;;;;;;;;;;;27.86;41.53;93932.25;4941531;28;7023;-65
2023/05/15 07:36:27;;;;;;;;;;;;;;;27.88;42.02;93937.28;4949598;28;9092;-65
2023/05/15 07:38:53;;;;;;;;;;;;;;;27.85;41.61;93936.31;4967539;28;7264;-64
2023/05/15 07:41:50;;;;;;;;;;;;;;;27.84;41.59;93936.88;4961105;28;9321;-64
2023/05/15 07:44:30;;;;;;;;;;;;;;;27.81;41.39;93940.69;4939966;29;8742;-64
2023/05/15 07:47:49;;;;;;;;;;;;;;;27.80;41.73;93933.66;4911155;29;7183;-64
2023/05/15 07:51:09;;;;;;;;;;;;;;;27.78;41.74;93944.53;4928748;28;9229;-64
2023/05/15 07:53:37;;;;;;;;;;;;;;;27.74;41.71;93939.34;4910916;29;8688;-64
2023/05/15 07:56:41;;;;;;;;;;;;;;;27.74;41.56;93935.81;4924474;29;7246;-64
2023/05/15 07:59:18;;;;;;;;;;;;;;;27.71;42.07;93937.63;4920840;29;7251;-64
2023/05/15 08:01:46;;;;;;;;;;;;;;;27.66;41.75;93926.72;4918974;29;9106;-64
2023/05/15 08:05:04;;;;;;;;;;;;;;;27.68;41.85;93937.97;4905350;29;9010;-64
2023/05/15 08:08:04;;;;;;;;;;;;;;;27.66;42.00;93937.75;4915851;29;9192;-65
2023/05/15 08:11:06;;;;;;;;;;;;;;;27.64;42.14;93936.25;4831795;29;9393;-65
2023/05/15 08:13:33;;;;;;;;;;;;;;;27.64;41.99;93939.03;4834974;29;7271;-65
2023/05/15 08:16:26;;;;;;;;;;;;;;;27.63;42.00;93939.56;4834622;29;7528;-64
2023/05/15 08:19:21;;;;;;;;;;;;;;;27.62;42.18;93936.06;4850141;29;7275;-65
2023/05/15 08:22:10;;;;;;;;;;;;;;;27.62;42.20;93943.63;4830839;29;7258;-65
2023/05/15 08:25:07;;;;;;;;;;;;;;;27.61;42.08;93937.34;4852957;29;6896;-65
2023/05/15 08:28:07;;;;;;;;;;;;;;;27.60;42.12;93935.09;4863456;29;8740;-65
2023/05/15 08:30:43;;;;;;;;;;;;;;;27.57;42.20;93933.44;4911963;29;9068;-65
2023/05/15 08:33:52;;;;;;;;;;;;;;;27.59;42.02;93936.41;4915303;29;9307;-64
2023/05/15 08:36:34;;;;;;;;;;;;;;;27.56;42.31;93937.44;4905862;29;9003;-65
2023/05/15 08:39:18;;;;;;;;;;;;;;;27.54;42.43;93940.75;4902538;29;9094;-65
2023/05/15 08:42:12;;;;;;;;;;;;;;;27.53;42.37;93936.50;4902408;29;7125;-65
2023/05/15 08:44:40;;;;;;;;;;;;;;;27.51;42.32;93949.38;4917143;29;7033;-65
2023/05/15 08:47:10;;;;;;;;;;;;;;;27.51;42.54;93954.91;4945058;28;7061;-65
2023/05/15 08:53:24;;;;;;;;;;;;;;;27.47;42.29;93941.41;5030805;28;7298;-64
2023/05/15 08:55:55;;;;;;;;;;;;;;;27.50;42.20;93948.63;5008006;28;8136;-64
2023/05/15 08:58:56;;;;;;;;;;;;;;;27.49;42.33;93936.09;5030391;28;7030;-64
2023/05/15 09:01:25;;;;;;;;;;;;;;;27.49;42.40;93929.84;5026671;28;9049;-64
2023/05/15 09:04:09;;;;;;;;;;;;;;;27.43;42.34;93916.13;5005685;28;8946;-64
2023/05/15 09:07:06;;;;;;;;;;;;;;;27.46;42.03;93919.84;5014668;28;7046;-64
2023/05/15 09:09:34;;;;;;;;;;;;;;;27.44;42.31;93917.63;5014166;28;7442;-64
2023/05/15 09:12:02;;;;;;;;;;;;;;;27.44;42.42;93917.63;5025652;28;7187;-64
2023/05/15 09:15:09;;;;;;;;;;;;;;;27.44;42.42;93922.41;5011300;28;7501;-65
2023/05/15 09:17:38;;;;;;;;;;;;;;;27.44;42.52;93927.94;5009705;28;7356;-65
2023/05/15 09:20:50;;;;;;;;;;;;;;;27.44;42.42;93930.69;5009543;28;7049;-64
2023/05/15 09:23:37;;;;;;;;;;;;;;;27.42;42.48;93922.94;5010540;28;8921;-64
2023/05/15 09:26:03;;;;;;;;;;;;;;;27.45;42.37;93919.09;5006637;28;8647;-64
2023/05/15 09:29:10;;;;;;;;;;;;;;;27.45;42.55;93923.88;5004403;28;7582;-65
2023/05/15 09:31:36;;;;;;;;;;;;;;;27.41;42.53;93913.16;4962559;28;7048;-65
2023/05/15 09:34:17;;;;;;;;;;;;;;;27.40;42.45;93911.69;4952914;28;9061;-65
2023/05/15 09:36:52;;;;;;;;;;;;;;;27.45;42.59;93913.56;4953587;28;7605;-64
2023/05/15 09:39:55;;;;;;;;;;;;;;;27.45;42.51;93921.13;4967977;28;7234;-64
2023/05/15 09:42:34;;;;;;;;;;;;;;;27.44;42.26;93911.34;4953699;28;7690;-64
2023/05/15 09:45:17;;;;;;;;;;;;;;;27.45;42.49;93924.63;4941754;28;6985;-65
2023/05/15 09:48:30;;;;;;;;;;;;;;;27.43;42.46;93926.44;4936101;28;8489;-65
2023/05/15 09:51:26;;;;;;;;;;;;;;;27.42;42.92;93916.69;4896070;29;7282;-64
2023/05/15 09:54:05;;;;;;;;;;;;;;;27.42;42.62;93919.44;4914665;28;7132;-65
2023/05/15 09:57:06;;;;;;;;;;;;;;;27.41;42.61;93915.94;4925639;29;9093;-65
2023/05/15 09:59:31;;;;;;;;;;;;;;;27.39;42.10;93910.19;4934956;28;7034;-65
2023/05/15 10:02:07;;;;;;;;;;;;;;;27.40;42.38;93911.69;4952293;28;8958;-64
2023/05/15 10:04:35;;;;;;;;;;;;;;;27.39;42.73;93910.19;4936226;28;7122;-64
2023/05/15 10:07:07;;;;;;;;;;;;;;;27.37;42.24;93907.22;4933294;28;7209;-65
2023/05/15 10:09:33;;;;;;;;;;;;;;;27.38;42.53;93916.97;4926239;28;7027;-64
2023/05/15 10:12:25;;;;;;;;;;;;;;;27.36;42.46;93911.25;4931472;28;8213;-64
2023/05/15 10:14:54;;;;;;;;;;;;;;;27.37;42.27;93912.00;4931019;28;8752;-64
2023/05/15 10:17:24;;;;;;;;;;;;;;;27.36;42.12;93914.00;4995931;28;7258;-64
2023/05/15 10:20:07;;;;;;;;;;;;;;;27.36;42.59;93914.00;4991687;28;9172;-64
2023/05/15 10:22:38;;;;;;;;;;;;;;;27.36;42.38;93911.25;5008011;28;7286;-65
2023/05/15 10:25:21;;;;;;;;;;;;;;;27.37;42.75;93903.72;4986308;28;7106;-65
2023/05/15 10:27:59;;;;;;;;;;;;;;;27.37;42.53;93906.47;5030097;28;7130;-65
2023/05/15 10:30:35;;;;;;;;;;;;;;;27.37;42.94;93901.69;5047776;28;6984;-65
2023/05/15 10:33:07;;;;;;;;;;;;;;;27.34;42.54;93897.22;5046245;28;8708;-65
2023/05/15 10:35:37;;;;;;;;;;;;;;;27.33;42.89;93892.22;5035901;28;6972;-65
2023/05/15 10:38:20;;;;;;;;;;;;;;;27.33;42.72;93898.50;5036350;28;9126;-64
2023/05/15 10:40:57;;;;;;;;;;;;;;;27.32;42.76;93883.19;5035702;28;7106;-65
2023/05/15 10:43:27;;;;;;;;;;;;;;;27.32;42.49;93880.44;5033913;28;10199;-64
2023/05/15 10:46:01;;;;;;;;;;;;;;;27.33;42.99;93889.47;5049100;28;10074;-65
2023/05/15 10:48:57;;;;;;;;;;;;;;;27.32;43.40;93882.44;5050741;28;7310;-65
2023/05/15 10:51:55;;;;;;;;;;;;;;;27.31;42.93;93881.72;4975613;28;7451;-64
2023/05/15 10:54:21;;;;;;;;;;;;;;;27.31;42.30;93886.50;4965121;28;9057;-64
2023/05/15 10:56:47;;;;;;;;;;;;;;;27.32;42.79;93885.97;4984060;28;9144;-64
2023/05/15 10:59:15;;;;;;;;;;;;;;;27.29;42.98;93881.53;4962148;28;7463;-64
2023/05/15 11:01:41;;;;;;;;;;;;;;;27.30;42.87;93891.28;4962772;28;7278;-64
2023/05/15 11:04:15;;;;;;;;;;;;;;;27.31;43.10;93881.72;4957164;28;7200;-65
2023/05/15 11:06:44;;;;;;;;;;;;;;;27.31;42.97;93881.72;4971265;28;8779;-64
2023/05/15 11:09:23;;;;;;;;;;;;;;;27.31;43.08;93876.19;4973082;28;7685;-64
2023/05/15 11:11:51;;;;;;;;;;;;;;;27.30;43.01;93871.19;4968354;28;9037;-65
2023/05/15 11:14:21;;;;;;;;;;;;;;;27.32;43.16;93866.63;4972015;28;7250;-65
2023/05/15 11:17:06;;;;;;;;;;;;;;;27.31;42.83;93854.09;4974304;28;9192;-65
2023/05/15 11:20:05;;;;;;;;;;;;;;;27.31;43.02;93847.84;4960516;28;7048;-65
2023/05/15 11:23:00;;;;;;;;;;;;;;;27.30;42.82;93852.63;4974034;28;8450;-64
2023/05/15 11:25:34;;;;;;;;;;;;;;;27.31;43.41;93850.59;4992956;28;7010;-65
2023/05/15 11:28:02;;;;;;;;;;;;;;;27.28;43.01;93843.38;5004562;28;8711;-64
2023/05/15 11:30:37;;;;;;;;;;;;;;;27.33;42.99;93845.28;5021484;28;9127;-65
2023/05/15 11:33:07;;;;;;;;;;;;;;;27.33;42.89;93843.28;5036018;28;9196;-65
2023/05/15 11:35:38;;;;;;;;;;;;;;;27.32;42.78;93841.78;5044361;28;7440;-65
2023/05/15 11:38:08;;;;;;;;;;;;;;;27.29;43.02;93833.81;5027129;28;9215;-64
2023/05/15 11:40:55;;;;;;;;;;;;;;;27.31;43.31;93839.56;5031573;28;7357;-64
2023/05/15 11:43:43;;;;;;;;;;;;;;;27.32;43.12;93843.78;5029734;28;7614;-64
2023/05/15 11:46:11;;;;;;;;;;;;;;;27.33;42.98;93846.03;5047115;28;9359;-65
2023/05/15 11:49:14;;;;;;;;;;;;;;;27.33;43.06;93840.50;5032400;28;7189;-64
2023/05/15 11:52:25;;;;;;;;;;;;;;;27.33;43.21;93837.75;4949050;28;7274;-64
2023/05/15 11:55:04;;;;;;;;;;;;;;;27.32;42.74;93824.47;4948939;28;7054;-65
2023/05/15 11:57:40;;;;;;;;;;;;;;;27.33;42.66;93823.19;4954294;28;7905;-64
2023/05/15 12:00:08;;;;;;;;;;;;;;;27.36;42.98;93822.88;4944903;28;8253;-64
2023/05/15 12:02:39;;;;;;;;;;;;;;;27.37;43.19;93824.38;4950684;28;9261;-64
2023/05/15 12:05:08;;;;;;;;;;;;;;;27.38;43.13;93831.38;4965947;28;8668;-64
2023/05/15 12:07:38;;;;;;;;;;;;;;;27.38;42.79;93819.59;4959640;28;9532;-65
2023/05/15 12:10:09;;;;;;;;;;;;;;;27.39;42.84;93821.06;4946055;28;7521;-65
2023/05/15 12:12:39;;;;;;;;;;;;;;;27.39;43.09;93818.31;4961802;28;9248;-64
2023/05/15 12:15:11;;;;;;;;;;;;;;;27.41;42.79;93816.50;4963468;28;9145;-64
2023/05/15 12:17:39;;;;;;;;;;;;;;;27.38;43.21;93825.84;4949565;28;9251;-64
2023/05/15 12:20:17;;;;;;;;;;;;;;;27.38;42.43;93820.31;4961247;28;8827;-65
2023/05/15 12:22:49;;;;;;;;;;;;;;;27.36;42.11;93817.34;4959263;28;9161;-65
2023/05/15 12:25:16;;;;;;;;;;;;;;;27.38;41.69;93819.59;4958291;28;7257;-65
2023/05/15 12:27:43;;;;;;;;;;;;;;;27.38;42.25;93820.31;4990370;28;7255;-64
2023/05/15 12:30:20;;;;;;;;;;;;;;;27.38;41.93;93822.38;5041032;28;9439;-64
2023/05/15 12:33:02;;;;;;;;;;;;;;;27.38;42.21;93823.09;5029807;28;8500;-64
2023/05/15 12:35:54;;;;;;;;;;;;;;;27.36;42.29;93817.34;5053444;28;8862;-64
2023/05/15 12:38:27;;;;;;;;;;;;;;;27.40;42.39;93817.78;5033652;28;7081;-65
2023/05/15 12:40:55;;;;;;;;;;;;;;;27.37;42.44;93813.31;5031069;28;7278;-64
2023/05/15 12:43:30;;;;;;;;;;;;;;;27.36;42.59;93819.41;5040469;28;7439;-64
2023/05/15 12:45:56;;;;;;;;;;;;;;;27.36;42.14;93822.16;5041966;28;9014;-64
2023/05/15 12:48:29;;;;;;;;;;;;;;;27.36;42.17;93822.16;5038404;28;7124;-64
2023/05/15 12:50:55;;;;;;;;;;;;;;;27.36;42.44;93830.44;5043097;28;8994;-63
2023/05/15 12:53:21;;;;;;;;;;;;;;;27.35;42.45;93826.94;5042620;28;9593;-64
2023/05/15 12:55:56;;;;;;;;;;;;;;;27.33;42.84;93823.19;5042474;28;7476;-64
2023/05/15 12:58:22;;;;;;;;;;;;;;;27.34;42.53;93830.94;5045542;28;7031;-64
2023/05/15 13:00:51;;;;;;;;;;;;;;;27.35;42.48;93826.16;5043105;28;8977;-63
2023/05/15 13:03:20;;;;;;;;;;;;;;;27.34;43.07;93819.88;5020284;28;7151;-64
2023/05/15 13:05:50;;;;;;;;;;;;;;;27.34;42.34;93824.69;5044262;28;7362;-63
2023/05/15 13:08:17;;;;;;;;;;;;;;;27.35;42.53;93820.63;5042453;28;7884;-64
2023/05/15 13:10:45;;;;;;;;;;;;;;;27.35;42.58;93818.66;5026283;28;7438;-64
2023/05/15 13:13:14;;;;;;;;;;;;;;;27.35;42.22;93815.88;5033491;28;7033;-64
2023/05/15 13:15:44;;;;;;;;;;;;;;;27.33;42.52;93815.66;5028536;28;9162;-64
2023/05/15 13:18:12;;;;;;;;;;;;;;;27.34;42.61;93808.84;5028731;28;7204;-64
2023/05/15 13:20:45;;;;;;;;;;;;;;;27.33;42.86;93807.38;5036402;28;7048;-64
2023/05/15 13:23:16;;;;;;;;;;;;;;;27.33;43.00;93804.59;5024559;28;9025;-64
2023/05/15 13:25:42;;;;;;;;;;;;;;;27.34;42.61;93808.84;5027005;28;7246;-64
2023/05/15 13:28:10;;;;;;;;;;;;;;;27.32;42.50;93811.41;5025446;28;7034;-64
2023/05/15 13:30:42;;;;;;;;;;;;;;;27.40;42.47;93811.53;5024217;28;9488;-64
2023/05/15 13:33:09;;;;;;;;;;;;;;;27.42;42.17;93811.72;5047484;28;7180;-64
2023/05/15 13:35:37;;;;;;;;;;;;;;;27.42;42.33;93797.91;5037599;28;7222;-64
2023/05/15 13:38:13;;;;;;;;;;;;;;;27.47;42.42;93808.09;5043180;28;9123;-64
2023/05/15 13:40:41;;;;;;;;;;;;;;;27.47;42.72;93805.34;5025353;28;7255;-63
2023/05/15 13:43:08;;;;;;;;;;;;;;;27.48;42.26;93804.03;5027268;28;7250;-64
2023/05/15 13:45:41;;;;;;;;;;;;;;;27.48;42.58;93796.50;5032687;28;7043;-64
2023/05/15 13:48:19;;;;;;;;;;;;;;;27.53;42.84;93797.66;5032543;28;7064;-64
2023/05/15 13:51:14;;;;;;;;;;;;;;;27.50;42.85;93791.19;5032006;28;9034;-64
2023/05/15 13:53:56;;;;;;;;;;;;;;;27.52;42.76;93798.91;4985648;28;8996;-64
2023/05/15 13:56:31;;;;;;;;;;;;;;;27.51;42.89;93789.16;4989405;28;7449;-63
2023/05/15 13:58:57;;;;;;;;;;;;;;;27.51;42.99;93794.69;4984489;28;9323;-64